3IL4 weather

Maaks Heliport
Middletown, Illinois, United States

Public forecast

Using degrees Fahrenheit for public forecast. Weather courtesy of forecast.io.

METAR (pilot weather report)

Closest report is Logan County Airport, 12.0 nm (22.2 km) E. Retrieved 2019/06/27 04:35 UTC (1 hour ago):

KAAA 270435Z AUTO 21005KT 10SM CLR 23/20 A3014 RMK AO2 T02260196

TAF (pilot weather forecast)

Forecast is more than 12 hours old.

Closest forecast is Abraham Lincoln Capital Airport, 17.7 nm (32.8 km) SSW. Retrieved 2019/06/26 00:36 UTC (1 day ago):

TAF KSPI 262334Z 2700/2724 23005KT P6SM BKN200 FM270600 20003KT P6SM SCT250 FM271800 19007KT P6SM BKN200